Terminal Aerodrome Forecast
Issued by NWS

Home | Current Version | Previous Version | Text Only | Print | Product List | Glossary Off
Versions: 1 2 3 4 5 6 7 8 9 10 11 12 13 14 15 16 17 18 19 20 21 22

000
FTUS43 KBIS 281400 AAA
TAFMOT
TAF AMD
KMOT 281433Z 2815/2912 36011G18KT P6SM -SHRA SCT015 OVC050
      TEMPO 2815/2818 BKN012
     FM281800 01015KT P6SM VCSH BKN025 OVC050
     FM290300 03010KT 5SM BR VCSH BKN010 OVC020
     FM290600 06008KT 4SM BR BKN008 OVC010=

USA.gov is the U.S. government's official web portal to all federal, state and local government web resources and services.